sensor_id;sensor_type;location;lat;lon;timestamp;temperature;humidity
32097;DHT22;18610;49.916;8.284;2023-03-14T00:01:56;10.70;99.90
32097;DHT22;18610;49.916;8.284;2023-03-14T00:04:23;10.70;99.90
32097;DHT22;18610;49.916;8.284;2023-03-14T00:06:50;10.70;99.90
32097;DHT22;18610;49.916;8.284;2023-03-14T00:09:17;10.70;99.90
32097;DHT22;18610;49.916;8.284;2023-03-14T00:11:43;10.80;99.90
32097;DHT22;18610;49.916;8.284;2023-03-14T00:14:11;10.80;99.90
32097;DHT22;18610;49.916;8.284;2023-03-14T00:16:39;10.80;99.90
32097;DHT22;18610;49.916;8.284;2023-03-14T00:19:06;10.80;99.90
32097;DHT22;18610;49.916;8.284;2023-03-14T00:21:33;10.80;99.90
32097;DHT22;18610;49.916;8.284;2023-03-14T00:24:00;10.90;99.90
32097;DHT22;18610;49.916;8.284;2023-03-14T00:26:29;10.80;99.90
32097;DHT22;18610;49.916;8.284;2023-03-14T00:28:56;10.90;99.90
32097;DHT22;18610;49.916;8.284;2023-03-14T00:31:23;10.90;99.90
32097;DHT22;18610;49.916;8.284;2023-03-14T00:33:53;10.90;99.90
32097;DHT22;18610;49.916;8.284;2023-03-14T00:36:20;10.90;99.90
32097;DHT22;18610;49.916;8.284;2023-03-14T00:38:49;10.90;99.90
32097;DHT22;18610;49.916;8.284;2023-03-14T00:41:18;10.90;99.90
32097;DHT22;18610;49.916;8.284;2023-03-14T00:43:48;10.90;99.90
32097;DHT22;18610;49.916;8.284;2023-03-14T00:46:14;10.90;99.90
32097;DHT22;18610;49.916;8.284;2023-03-14T00:48:41;11.00;99.90
32097;DHT22;18610;49.916;8.284;2023-03-14T00:51:09;10.90;99.90
32097;DHT22;18610;49.916;8.284;2023-03-14T00:53:39;10.90;99.90
32097;DHT22;18610;49.916;8.284;2023-03-14T00:56:09;10.90;99.90
32097;DHT22;18610;49.916;8.284;2023-03-14T00:58:35;10.90;99.90
32097;DHT22;18610;49.916;8.284;2023-03-14T01:01:06;10.90;99.90
32097;DHT22;18610;49.916;8.284;2023-03-14T01:03:32;10.80;99.90
32097;DHT22;18610;49.916;8.284;2023-03-14T01:06:09;10.80;99.90
32097;DHT22;18610;49.916;8.284;2023-03-14T01:08:36;10.80;99.90
32097;DHT22;18610;49.916;8.284;2023-03-14T01:11:06;10.80;99.90
32097;DHT22;18610;49.916;8.284;2023-03-14T01:13:33;10.80;99.90
32097;DHT22;18610;49.916;8.284;2023-03-14T01:16:01;10.80;99.90
32097;DHT22;18610;49.916;8.284;2023-03-14T01:18:30;10.80;99.90
32097;DHT22;18610;49.916;8.284;2023-03-14T01:20:57;10.80;99.90
32097;DHT22;18610;49.916;8.284;2023-03-14T01:23:25;10.80;99.90
32097;DHT22;18610;49.916;8.284;2023-03-14T01:25:52;10.80;99.90
32097;DHT22;18610;49.916;8.284;2023-03-14T01:28:19;10.80;99.90
32097;DHT22;18610;49.916;8.284;2023-03-14T01:30:46;10.80;99.90
32097;DHT22;18610;49.916;8.284;2023-03-14T01:33:12;10.80;99.90
32097;DHT22;18610;49.916;8.284;2023-03-14T01:35:40;10.80;99.90
32097;DHT22;18610;49.916;8.284;2023-03-14T01:38:07;10.90;99.90
32097;DHT22;18610;49.916;8.284;2023-03-14T01:40:41;10.90;99.90
32097;DHT22;18610;49.916;8.284;2023-03-14T01:43:15;10.80;99.90
32097;DHT22;18610;49.916;8.284;2023-03-14T01:46:19;10.80;99.90
32097;DHT22;18610;49.916;8.284;2023-03-14T01:48:51;10.80;99.90
32097;DHT22;18610;49.916;8.284;2023-03-14T01:51:22;10.90;99.90
32097;DHT22;18610;49.916;8.284;2023-03-14T01:53:51;10.90;99.90
32097;DHT22;18610;49.916;8.284;2023-03-14T01:56:20;10.90;99.90
32097;DHT22;18610;49.916;8.284;2023-03-14T01:58:49;10.90;99.90
32097;DHT22;18610;49.916;8.284;2023-03-14T02:01:20;10.90;99.90
32097;DHT22;18610;49.916;8.284;2023-03-14T02:03:50;10.90;99.90
32097;DHT22;18610;49.916;8.284;2023-03-14T02:06:21;10.90;99.90
32097;DHT22;18610;49.916;8.284;2023-03-14T02:08:49;10.80;99.90
32097;DHT22;18610;49.916;8.284;2023-03-14T02:11:17;10.90;99.90
32097;DHT22;18610;49.916;8.284;2023-03-14T02:13:45;10.80;99.90
32097;DHT22;18610;49.916;8.284;2023-03-14T02:16:12;10.80;99.90
32097;DHT22;18610;49.916;8.284;2023-03-14T02:18:39;10.80;99.90
32097;DHT22;18610;49.916;8.284;2023-03-14T02:21:12;10.90;99.90
32097;DHT22;18610;49.916;8.284;2023-03-14T02:23:46;10.90;99.90
32097;DHT22;18610;49.916;8.284;2023-03-14T02:26:17;10.80;99.90
32097;DHT22;18610;49.916;8.284;2023-03-14T02:28:48;10.80;99.90
32097;DHT22;18610;49.916;8.284;2023-03-14T02:31:16;10.80;99.90
32097;DHT22;18610;49.916;8.284;2023-03-14T02:33:43;10.70;99.90
32097;DHT22;18610;49.916;8.284;2023-03-14T02:36:11;10.70;99.90
32097;DHT22;18610;49.916;8.284;2023-03-14T02:38:44;10.70;99.90
32097;DHT22;18610;49.916;8.284;2023-03-14T02:41:13;10.70;99.90
32097;DHT22;18610;49.916;8.284;2023-03-14T02:43:40;10.70;99.90
32097;DHT22;18610;49.916;8.284;2023-03-14T02:46:10;10.70;99.90
32097;DHT22;18610;49.916;8.284;2023-03-14T02:48:41;10.70;99.90
32097;DHT22;18610;49.916;8.284;2023-03-14T02:51:10;10.70;99.90
32097;DHT22;18610;49.916;8.284;2023-03-14T02:53:38;10.70;99.90
32097;DHT22;18610;49.916;8.284;2023-03-14T02:56:07;10.70;99.90
32097;DHT22;18610;49.916;8.284;2023-03-14T02:58:35;10.70;99.90
32097;DHT22;18610;49.916;8.284;2023-03-14T03:01:02;10.70;99.90
32097;DHT22;18610;49.916;8.284;2023-03-14T03:03:30;10.60;99.90
32097;DHT22;18610;49.916;8.284;2023-03-14T03:05:57;10.60;99.90
32097;DHT22;18610;49.916;8.284;2023-03-14T03:08:26;10.60;99.90
32097;DHT22;18610;49.916;8.284;2023-03-14T03:10:53;10.60;99.90
32097;DHT22;18610;49.916;8.284;2023-03-14T03:13:20;10.60;99.90
32097;DHT22;18610;49.916;8.284;2023-03-14T03:15:47;10.60;99.90
32097;DHT22;18610;49.916;8.284;2023-03-14T03:18:14;10.70;99.90
32097;DHT22;18610;49.916;8.284;2023-03-14T03:20:42;10.70;99.90
32097;DHT22;18610;49.916;8.284;2023-03-14T03:23:12;10.70;99.90
32097;DHT22;18610;49.916;8.284;2023-03-14T03:25:38;10.70;99.90
32097;DHT22;18610;49.916;8.284;2023-03-14T03:28:05;10.70;99.90
32097;DHT22;18610;49.916;8.284;2023-03-14T03:30:36;10.70;99.90
32097;DHT22;18610;49.916;8.284;2023-03-14T03:33:03;10.70;99.90
32097;DHT22;18610;49.916;8.284;2023-03-14T03:35:30;10.70;99.90
32097;DHT22;18610;49.916;8.284;2023-03-14T03:37:58;10.80;99.90
32097;DHT22;18610;49.916;8.284;2023-03-14T03:40:25;10.70;99.90
32097;DHT22;18610;49.916;8.284;2023-03-14T03:42:51;10.70;99.90
32097;DHT22;18610;49.916;8.284;2023-03-14T03:45:18;10.80;99.90
32097;DHT22;18610;49.916;8.284;2023-03-14T03:47:45;10.80;99.90
32097;DHT22;18610;49.916;8.284;2023-03-14T03:50:11;10.70;99.90
32097;DHT22;18610;49.916;8.284;2023-03-14T03:52:38;10.70;99.90
32097;DHT22;18610;49.916;8.284;2023-03-14T03:55:07;10.80;99.90
32097;DHT22;18610;49.916;8.284;2023-03-14T03:57:34;10.70;99.90
32097;DHT22;18610;49.916;8.284;2023-03-14T04:00:00;10.70;99.90
32097;DHT22;18610;49.916;8.284;2023-03-14T04:02:30;10.80;99.90
32097;DHT22;18610;49.916;8.284;2023-03-14T04:04:59;10.80;99.90
32097;DHT22;18610;49.916;8.284;2023-03-14T04:07:26;10.80;99.90
32097;DHT22;18610;49.916;8.284;2023-03-14T04:09:53;10.80;99.90
32097;DHT22;18610;49.916;8.284;2023-03-14T04:12:23;10.80;99.90
32097;DHT22;18610;49.916;8.284;2023-03-14T04:14:50;10.70;99.90
32097;DHT22;18610;49.916;8.284;2023-03-14T04:17:17;10.70;99.90
32097;DHT22;18610;49.916;8.284;2023-03-14T04:19:43;10.80;99.90
32097;DHT22;18610;49.916;8.284;2023-03-14T04:22:10;10.70;99.90
32097;DHT22;18610;49.916;8.284;2023-03-14T04:24:37;10.70;99.90
32097;DHT22;18610;49.916;8.284;2023-03-14T04:27:04;10.80;99.90
32097;DHT22;18610;49.916;8.284;2023-03-14T04:29:32;10.80;99.90
32097;DHT22;18610;49.916;8.284;2023-03-14T04:31:59;10.80;99.90
32097;DHT22;18610;49.916;8.284;2023-03-14T04:34:25;10.80;99.90
32097;DHT22;18610;49.916;8.284;2023-03-14T04:36:52;10.70;99.90
32097;DHT22;18610;49.916;8.284;2023-03-14T04:39:19;10.70;99.90
32097;DHT22;18610;49.916;8.284;2023-03-14T04:41:46;10.60;99.90
32097;DHT22;18610;49.916;8.284;2023-03-14T04:44:12;10.60;99.90
32097;DHT22;18610;49.916;8.284;2023-03-14T04:46:40;10.60;99.90
32097;DHT22;18610;49.916;8.284;2023-03-14T04:49:07;10.60;99.90
32097;DHT22;18610;49.916;8.284;2023-03-14T04:51:34;10.60;99.90
32097;DHT22;18610;49.916;8.284;2023-03-14T04:54:00;10.50;99.90
32097;DHT22;18610;49.916;8.284;2023-03-14T04:56:27;10.60;99.90
32097;DHT22;18610;49.916;8.284;2023-03-14T04:58:54;10.60;99.90
32097;DHT22;18610;49.916;8.284;2023-03-14T05:01:21;10.60;99.90
32097;DHT22;18610;49.916;8.284;2023-03-14T05:03:51;10.60;99.90
32097;DHT22;18610;49.916;8.284;2023-03-14T05:06:18;10.60;99.90
32097;DHT22;18610;49.916;8.284;2023-03-14T05:08:45;10.60;99.90
32097;DHT22;18610;49.916;8.284;2023-03-14T05:11:11;10.60;99.90
32097;DHT22;18610;49.916;8.284;2023-03-14T05:13:38;10.50;99.90
32097;DHT22;18610;49.916;8.284;2023-03-14T05:16:07;10.50;99.90
32097;DHT22;18610;49.916;8.284;2023-03-14T05:18:34;10.60;99.90
32097;DHT22;18610;49.916;8.284;2023-03-14T05:21:03;10.60;99.90
32097;DHT22;18610;49.916;8.284;2023-03-14T05:23:30;10.50;99.90
32097;DHT22;18610;49.916;8.284;2023-03-14T05:25:56;10.50;99.90
32097;DHT22;18610;49.916;8.284;2023-03-14T05:28:23;10.60;99.90
32097;DHT22;18610;49.916;8.284;2023-03-14T05:30:50;10.50;99.90
32097;DHT22;18610;49.916;8.284;2023-03-14T05:33:17;10.50;99.90
32097;DHT22;18610;49.916;8.284;2023-03-14T05:35:43;10.60;99.90
32097;DHT22;18610;49.916;8.284;2023-03-14T05:38:11;10.60;99.90
32097;DHT22;18610;49.916;8.284;2023-03-14T05:40:38;10.60;99.90
32097;DHT22;18610;49.916;8.284;2023-03-14T05:43:05;10.60;99.90
32097;DHT22;18610;49.916;8.284;2023-03-14T05:45:33;10.50;99.90
32097;DHT22;18610;49.916;8.284;2023-03-14T05:48:00;10.50;99.90
32097;DHT22;18610;49.916;8.284;2023-03-14T05:50:26;10.50;99.90
32097;DHT22;18610;49.916;8.284;2023-03-14T05:52:53;10.50;99.90
32097;DHT22;18610;49.916;8.284;2023-03-14T05:55:21;10.50;99.90
32097;DHT22;18610;49.916;8.284;2023-03-14T05:57:48;10.50;99.90
32097;DHT22;18610;49.916;8.284;2023-03-14T06:00:15;10.40;99.90
32097;DHT22;18610;49.916;8.284;2023-03-14T06:02:42;10.40;99.90
32097;DHT22;18610;49.916;8.284;2023-03-14T06:05:09;10.40;99.90
32097;DHT22;18610;49.916;8.284;2023-03-14T06:07:35;10.40;99.90
32097;DHT22;18610;49.916;8.284;2023-03-14T06:10:03;10.40;99.90
32097;DHT22;18610;49.916;8.284;2023-03-14T06:12:31;10.40;99.90
32097;DHT22;18610;49.916;8.284;2023-03-14T06:14:58;10.40;99.90
32097;DHT22;18610;49.916;8.284;2023-03-14T06:17:24;10.40;99.90
32097;DHT22;18610;49.916;8.284;2023-03-14T06:19:51;10.40;99.90
32097;DHT22;18610;49.916;8.284;2023-03-14T06:22:18;10.40;99.90
32097;DHT22;18610;49.916;8.284;2023-03-14T06:24:45;10.40;99.90
32097;DHT22;18610;49.916;8.284;2023-03-14T06:27:11;10.40;99.90
32097;DHT22;18610;49.916;8.284;2023-03-14T06:29:39;10.40;99.90
32097;DHT22;18610;49.916;8.284;2023-03-14T06:32:06;10.50;99.90
32097;DHT22;18610;49.916;8.284;2023-03-14T06:34:34;10.50;99.90
32097;DHT22;18610;49.916;8.284;2023-03-14T06:37:01;10.50;99.90
32097;DHT22;18610;49.916;8.284;2023-03-14T06:39:27;10.40;99.90
32097;DHT22;18610;49.916;8.284;2023-03-14T06:41:54;10.40;99.90
32097;DHT22;18610;49.916;8.284;2023-03-14T06:44:21;10.50;99.90
32097;DHT22;18610;49.916;8.284;2023-03-14T06:46:49;10.50;99.90
32097;DHT22;18610;49.916;8.284;2023-03-14T06:49:15;10.50;99.90
32097;DHT22;18610;49.916;8.284;2023-03-14T06:51:42;10.50;99.90
32097;DHT22;18610;49.916;8.284;2023-03-14T06:54:09;10.50;99.90
32097;DHT22;18610;49.916;8.284;2023-03-14T06:56:35;10.50;99.90
32097;DHT22;18610;49.916;8.284;2023-03-14T06:59:02;10.50;99.90
32097;DHT22;18610;49.916;8.284;2023-03-14T07:01:30;10.50;99.90
32097;DHT22;18610;49.916;8.284;2023-03-14T07:03:59;10.50;99.90
32097;DHT22;18610;49.916;8.284;2023-03-14T07:06:25;10.50;99.90
32097;DHT22;18610;49.916;8.284;2023-03-14T07:08:54;10.50;99.90
32097;DHT22;18610;49.916;8.284;2023-03-14T07:11:21;10.50;99.90
32097;DHT22;18610;49.916;8.284;2023-03-14T07:13:48;10.50;99.90
32097;DHT22;18610;49.916;8.284;2023-03-14T07:16:15;10.60;99.90
32097;DHT22;18610;49.916;8.284;2023-03-14T07:18:42;10.60;99.90
32097;DHT22;18610;49.916;8.284;2023-03-14T07:21:10;10.60;99.90
32097;DHT22;18610;49.916;8.284;2023-03-14T07:23:36;10.60;99.90
32097;DHT22;18610;49.916;8.284;2023-03-14T07:26:03;10.60;99.90
32097;DHT22;18610;49.916;8.284;2023-03-14T07:28:30;10.60;99.90
32097;DHT22;18610;49.916;8.284;2023-03-14T07:30:57;10.60;99.90
32097;DHT22;18610;49.916;8.284;2023-03-14T07:33:23;10.60;99.90
32097;DHT22;18610;49.916;8.284;2023-03-14T07:35:50;10.60;99.90
32097;DHT22;18610;49.916;8.284;2023-03-14T07:38:18;10.60;99.90
32097;DHT22;18610;49.916;8.284;2023-03-14T07:40:45;10.60;99.90
32097;DHT22;18610;49.916;8.284;2023-03-14T07:43:12;10.70;99.90
32097;DHT22;18610;49.916;8.284;2023-03-14T07:45:40;10.60;99.90
32097;DHT22;18610;49.916;8.284;2023-03-14T07:48:07;10.70;99.90
32097;DHT22;18610;49.916;8.284;2023-03-14T07:50:33;10.70;99.90
32097;DHT22;18610;49.916;8.284;2023-03-14T07:53:00;10.80;99.90
32097;DHT22;18610;49.916;8.284;2023-03-14T07:55:28;10.80;99.90
32097;DHT22;18610;49.916;8.284;2023-03-14T07:57:55;10.70;99.90
32097;DHT22;18610;49.916;8.284;2023-03-14T08:00:22;10.70;99.90
32097;DHT22;18610;49.916;8.284;2023-03-14T08:02:48;10.70;99.90
32097;DHT22;18610;49.916;8.284;2023-03-14T08:05:16;10.70;99.90
32097;DHT22;18610;49.916;8.284;2023-03-14T08:07:43;10.80;99.90
32097;DHT22;18610;49.916;8.284;2023-03-14T08:10:10;10.80;99.90
32097;DHT22;18610;49.916;8.284;2023-03-14T08:12:42;10.90;99.90
32097;DHT22;18610;49.916;8.284;2023-03-14T08:15:10;10.90;99.90
32097;DHT22;18610;49.916;8.284;2023-03-14T08:17:37;10.80;99.90
32097;DHT22;18610;49.916;8.284;2023-03-14T08:20:05;10.80;99.90
32097;DHT22;18610;49.916;8.284;2023-03-14T08:22:34;10.80;99.90
32097;DHT22;18610;49.916;8.284;2023-03-14T08:25:00;10.90;99.90
32097;DHT22;18610;49.916;8.284;2023-03-14T08:27:27;10.90;99.90
32097;DHT22;18610;49.916;8.284;2023-03-14T08:29:55;10.90;99.90
32097;DHT22;18610;49.916;8.284;2023-03-14T08:32:22;11.00;99.90
32097;DHT22;18610;49.916;8.284;2023-03-14T08:34:49;11.10;99.90
32097;DHT22;18610;49.916;8.284;2023-03-14T08:37:16;11.10;99.90
32097;DHT22;18610;49.916;8.284;2023-03-14T08:39:47;11.20;99.90
32097;DHT22;18610;49.916;8.284;2023-03-14T08:42:14;11.10;99.90
32097;DHT22;18610;49.916;8.284;2023-03-14T08:44:40;11.20;99.90
32097;DHT22;18610;49.916;8.284;2023-03-14T08:47:09;11.20;99.90
32097;DHT22;18610;49.916;8.284;2023-03-14T08:49:35;11.50;99.90
32097;DHT22;18610;49.916;8.284;2023-03-14T08:52:03;11.60;99.90
32097;DHT22;18610;49.916;8.284;2023-03-14T08:54:30;11.80;99.90
32097;DHT22;18610;49.916;8.284;2023-03-14T08:56:57;11.90;99.90
32097;DHT22;18610;49.916;8.284;2023-03-14T08:59:24;12.00;99.90
32097;DHT22;18610;49.916;8.284;2023-03-14T09:01:51;12.10;99.90
32097;DHT22;18610;49.916;8.284;2023-03-14T09:04:20;12.10;99.90
32097;DHT22;18610;49.916;8.284;2023-03-14T09:06:47;11.90;99.90
32097;DHT22;18610;49.916;8.284;2023-03-14T09:09:14;11.90;99.90
32097;DHT22;18610;49.916;8.284;2023-03-14T09:11:40;11.80;99.90
32097;DHT22;18610;49.916;8.284;2023-03-14T09:14:07;11.70;99.90
32097;DHT22;18610;49.916;8.284;2023-03-14T09:16:34;11.70;99.90
32097;DHT22;18610;49.916;8.284;2023-03-14T09:19:00;11.60;99.90
32097;DHT22;18610;49.916;8.284;2023-03-14T09:21:28;11.70;99.90
32097;DHT22;18610;49.916;8.284;2023-03-14T09:23:55;11.60;99.90
32097;DHT22;18610;49.916;8.284;2023-03-14T09:26:22;11.70;99.90
32097;DHT22;18610;49.916;8.284;2023-03-14T09:28:49;11.70;99.90
32097;DHT22;18610;49.916;8.284;2023-03-14T09:31:15;11.70;99.90
32097;DHT22;18610;49.916;8.284;2023-03-14T09:33:42;11.70;99.90
32097;DHT22;18610;49.916;8.284;2023-03-14T09:36:10;11.70;99.90
32097;DHT22;18610;49.916;8.284;2023-03-14T09:38:39;11.80;99.90
32097;DHT22;18610;49.916;8.284;2023-03-14T09:41:14;11.80;99.90
32097;DHT22;18610;49.916;8.284;2023-03-14T09:43:42;11.80;99.90
32097;DHT22;18610;49.916;8.284;2023-03-14T09:46:10;11.90;99.90
32097;DHT22;18610;49.916;8.284;2023-03-14T09:48:38;11.90;99.90
32097;DHT22;18610;49.916;8.284;2023-03-14T09:51:11;11.90;99.90
32097;DHT22;18610;49.916;8.284;2023-03-14T09:53:42;12.00;99.90
32097;DHT22;18610;49.916;8.284;2023-03-14T09:56:13;12.00;99.90
32097;DHT22;18610;49.916;8.284;2023-03-14T09:58:41;12.00;99.90
32097;DHT22;18610;49.916;8.284;2023-03-14T10:01:13;12.00;99.90
32097;DHT22;18610;49.916;8.284;2023-03-14T10:03:42;12.00;99.90
32097;DHT22;18610;49.916;8.284;2023-03-14T10:06:11;11.90;99.90
32097;DHT22;18610;49.916;8.284;2023-03-14T10:08:41;12.00;99.90
32097;DHT22;18610;49.916;8.284;2023-03-14T10:11:14;11.80;99.90
32097;DHT22;18610;49.916;8.284;2023-03-14T10:14:03;11.80;99.90
32097;DHT22;18610;49.916;8.284;2023-03-14T10:16:32;11.80;99.90
32097;DHT22;18610;49.916;8.284;2023-03-14T10:19:04;11.70;99.90
32097;DHT22;18610;49.916;8.284;2023-03-14T10:21:36;11.70;99.90
32097;DHT22;18610;49.916;8.284;2023-03-14T10:24:17;11.70;99.90
32097;DHT22;18610;49.916;8.284;2023-03-14T10:26:48;11.60;99.90
32097;DHT22;18610;49.916;8.284;2023-03-14T10:29:14;11.60;99.90
32097;DHT22;18610;49.916;8.284;2023-03-14T10:31:52;11.60;99.90
32097;DHT22;18610;49.916;8.284;2023-03-14T10:34:23;11.60;99.90
32097;DHT22;18610;49.916;8.284;2023-03-14T10:36:55;11.60;99.90
32097;DHT22;18610;49.916;8.284;2023-03-14T10:39:28;11.60;99.90
32097;DHT22;18610;49.916;8.284;2023-03-14T10:42:03;11.60;99.90
32097;DHT22;18610;49.916;8.284;2023-03-14T10:44:30;11.70;99.90
32097;DHT22;18610;49.916;8.284;2023-03-14T10:47:00;11.70;99.90
32097;DHT22;18610;49.916;8.284;2023-03-14T10:49:31;11.70;99.90
32097;DHT22;18610;49.916;8.284;2023-03-14T10:52:02;11.80;99.90
32097;DHT22;18610;49.916;8.284;2023-03-14T10:54:40;11.80;99.90
32097;DHT22;18610;49.916;8.284;2023-03-14T10:57:07;11.90;99.90
32097;DHT22;18610;49.916;8.284;2023-03-14T10:59:35;11.90;99.90
32097;DHT22;18610;49.916;8.284;2023-03-14T11:02:10;11.90;99.90
32097;DHT22;18610;49.916;8.284;2023-03-14T11:04:57;12.00;99.90
32097;DHT22;18610;49.916;8.284;2023-03-14T11:07:32;12.00;99.90
32097;DHT22;18610;49.916;8.284;2023-03-14T11:10:11;12.00;99.90
32097;DHT22;18610;49.916;8.284;2023-03-14T11:12:47;12.00;99.90
32097;DHT22;18610;49.916;8.284;2023-03-14T11:15:22;11.90;99.90
32097;DHT22;18610;49.916;8.284;2023-03-14T11:18:03;12.00;99.90
32097;DHT22;18610;49.916;8.284;2023-03-14T11:20:41;12.00;99.90
32097;DHT22;18610;49.916;8.284;2023-03-14T11:23:13;12.00;99.90
32097;DHT22;18610;49.916;8.284;2023-03-14T11:25:48;12.00;99.90
32097;DHT22;18610;49.916;8.284;2023-03-14T11:28:21;12.10;99.90
32097;DHT22;18610;49.916;8.284;2023-03-14T11:31:09;12.00;99.90
32097;DHT22;18610;49.916;8.284;2023-03-14T11:33:46;12.00;99.90
32097;DHT22;18610;49.916;8.284;2023-03-14T11:36:16;12.00;99.90
32097;DHT22;18610;49.916;8.284;2023-03-14T11:38:48;12.00;99.90
32097;DHT22;18610;49.916;8.284;2023-03-14T11:41:19;12.00;99.90
32097;DHT22;18610;49.916;8.284;2023-03-14T11:43:48;11.90;99.90
32097;DHT22;18610;49.916;8.284;2023-03-14T11:46:18;11.80;99.90
32097;DHT22;18610;49.916;8.284;2023-03-14T11:48:57;11.60;99.90
32097;DHT22;18610;49.916;8.284;2023-03-14T11:51:29;11.70;99.90
32097;DHT22;18610;49.916;8.284;2023-03-14T11:54:02;12.00;99.90
32097;DHT22;18610;49.916;8.284;2023-03-14T11:56:36;12.10;99.90
32097;DHT22;18610;49.916;8.284;2023-03-14T11:59:07;12.20;99.90
32097;DHT22;18610;49.916;8.284;2023-03-14T12:01:49;12.10;99.90
32097;DHT22;18610;49.916;8.284;2023-03-14T12:04:38;12.10;99.90
32097;DHT22;18610;49.916;8.284;2023-03-14T12:07:13;12.10;99.90
32097;DHT22;18610;49.916;8.284;2023-03-14T12:09:41;12.20;99.90
32097;DHT22;18610;49.916;8.284;2023-03-14T12:12:14;12.30;99.90
32097;DHT22;18610;49.916;8.284;2023-03-14T12:14:45;12.40;99.90
32097;DHT22;18610;49.916;8.284;2023-03-14T12:17:20;12.50;99.90
32097;DHT22;18610;49.916;8.284;2023-03-14T12:19:48;12.60;99.90
32097;DHT22;18610;49.916;8.284;2023-03-14T12:22:30;12.70;99.90
32097;DHT22;18610;49.916;8.284;2023-03-14T12:25:04;12.70;99.90
32097;DHT22;18610;49.916;8.284;2023-03-14T12:28:02;12.70;99.90
32097;DHT22;18610;49.916;8.284;2023-03-14T12:30:31;12.70;99.90
32097;DHT22;18610;49.916;8.284;2023-03-14T12:33:31;12.70;99.90
32097;DHT22;18610;49.916;8.284;2023-03-14T12:36:12;12.60;99.90
32097;DHT22;18610;49.916;8.284;2023-03-14T12:39:07;12.50;99.90
32097;DHT22;18610;49.916;8.284;2023-03-14T12:41:40;12.40;99.90
32097;DHT22;18610;49.916;8.284;2023-03-14T12:44:43;12.40;99.90
32097;DHT22;18610;49.916;8.284;2023-03-14T12:50:16;12.00;99.90
32097;DHT22;18610;49.916;8.284;2023-03-14T12:53:05;11.90;99.90
32097;DHT22;18610;49.916;8.284;2023-03-14T12:55:37;11.80;99.90
32097;DHT22;18610;49.916;8.284;2023-03-14T12:58:16;11.70;99.90
32097;DHT22;18610;49.916;8.284;2023-03-14T13:00:45;11.70;99.90
32097;DHT22;18610;49.916;8.284;2023-03-14T13:03:19;11.60;99.90
32097;DHT22;18610;49.916;8.284;2023-03-14T13:05:55;11.40;99.90
32097;DHT22;18610;49.916;8.284;2023-03-14T13:08:35;11.00;99.90
32097;DHT22;18610;49.916;8.284;2023-03-14T13:11:05;10.60;99.90
32097;DHT22;18610;49.916;8.284;2023-03-14T13:13:34;10.50;99.90
32097;DHT22;18610;49.916;8.284;2023-03-14T13:16:04;10.40;99.90
32097;DHT22;18610;49.916;8.284;2023-03-14T13:18:35;10.30;99.90
32097;DHT22;18610;49.916;8.284;2023-03-14T13:21:03;10.20;99.90
32097;DHT22;18610;49.916;8.284;2023-03-14T13:23:34;10.10;99.90
32097;DHT22;18610;49.916;8.284;2023-03-14T13:26:02;10.20;99.90
32097;DHT22;18610;49.916;8.284;2023-03-14T13:28:30;10.30;99.90
32097;DHT22;18610;49.916;8.284;2023-03-14T13:31:01;10.40;99.90
32097;DHT22;18610;49.916;8.284;2023-03-14T13:33:29;10.60;99.90
32097;DHT22;18610;49.916;8.284;2023-03-14T13:35:58;10.60;99.90
32097;DHT22;18610;49.916;8.284;2023-03-14T13:38:26;10.60;99.90
32097;DHT22;18610;49.916;8.284;2023-03-14T13:40:54;10.60;99.90
32097;DHT22;18610;49.916;8.284;2023-03-14T13:43:27;10.50;99.90
32097;DHT22;18610;49.916;8.284;2023-03-14T13:46:01;10.40;99.90
32097;DHT22;18610;49.916;8.284;2023-03-14T13:48:30;10.40;99.90
32097;DHT22;18610;49.916;8.284;2023-03-14T13:51:01;10.60;99.90
32097;DHT22;18610;49.916;8.284;2023-03-14T13:53:30;11.20;99.90
32097;DHT22;18610;49.916;8.284;2023-03-14T13:56:02;11.60;99.90
32097;DHT22;18610;49.916;8.284;2023-03-14T13:58:30;12.20;99.90
32097;DHT22;18610;49.916;8.284;2023-03-14T14:01:06;12.20;99.90
32097;DHT22;18610;49.916;8.284;2023-03-14T14:03:40;12.40;99.90
32097;DHT22;18610;49.916;8.284;2023-03-14T14:06:19;12.90;99.90
32097;DHT22;18610;49.916;8.284;2023-03-14T14:08:46;13.10;99.90
32097;DHT22;18610;49.916;8.284;2023-03-14T14:11:20;13.20;99.90
32097;DHT22;18610;49.916;8.284;2023-03-14T14:13:48;13.50;99.90
32097;DHT22;18610;49.916;8.284;2023-03-14T14:16:16;13.40;98.70
32097;DHT22;18610;49.916;8.284;2023-03-14T14:18:46;13.40;99.80
32097;DHT22;18610;49.916;8.284;2023-03-14T14:21:13;13.40;99.90
32097;DHT22;18610;49.916;8.284;2023-03-14T14:23:40;13.70;99.50
32097;DHT22;18610;49.916;8.284;2023-03-14T14:26:07;13.80;98.10
32097;DHT22;18610;49.916;8.284;2023-03-14T14:28:35;13.80;98.50
32097;DHT22;18610;49.916;8.284;2023-03-14T14:31:06;13.50;97.50
32097;DHT22;18610;49.916;8.284;2023-03-14T14:33:45;12.80;96.60
32097;DHT22;18610;49.916;8.284;2023-03-14T14:36:19;12.40;98.40
32097;DHT22;18610;49.916;8.284;2023-03-14T14:38:51;12.20;97.70
32097;DHT22;18610;49.916;8.284;2023-03-14T14:41:19;11.90;98.50
32097;DHT22;18610;49.916;8.284;2023-03-14T14:43:46;11.80;98.30
32097;DHT22;18610;49.916;8.284;2023-03-14T14:46:18;11.90;99.90
32097;DHT22;18610;49.916;8.284;2023-03-14T14:48:47;11.90;99.30
32097;DHT22;18610;49.916;8.284;2023-03-14T14:51:24;12.20;98.70
32097;DHT22;18610;49.916;8.284;2023-03-14T14:54:03;12.40;97.70
32097;DHT22;18610;49.916;8.284;2023-03-14T14:56:35;12.50;97.70
32097;DHT22;18610;49.916;8.284;2023-03-14T14:59:02;12.30;96.50
32097;DHT22;18610;49.916;8.284;2023-03-14T15:01:34;12.30;97.80
32097;DHT22;18610;49.916;8.284;2023-03-14T15:04:04;12.40;97.70
32097;DHT22;18610;49.916;8.284;2023-03-14T15:06:35;12.20;97.00
32097;DHT22;18610;49.916;8.284;2023-03-14T15:09:02;12.10;97.60
32097;DHT22;18610;49.916;8.284;2023-03-14T15:11:29;11.90;96.60
32097;DHT22;18610;49.916;8.284;2023-03-14T15:13:56;11.70;97.10
32097;DHT22;18610;49.916;8.284;2023-03-14T15:16:28;11.50;97.20
32097;DHT22;18610;49.916;8.284;2023-03-14T15:18:57;11.30;96.70
32097;DHT22;18610;49.916;8.284;2023-03-14T15:21:28;11.20;96.70
32097;DHT22;18610;49.916;8.284;2023-03-14T15:23:55;11.10;97.80
32097;DHT22;18610;49.916;8.284;2023-03-14T15:26:23;10.90;97.60
32097;DHT22;18610;49.916;8.284;2023-03-14T15:28:51;10.80;97.90
32097;DHT22;18610;49.916;8.284;2023-03-14T15:31:19;10.60;98.60
32097;DHT22;18610;49.916;8.284;2023-03-14T15:33:46;10.40;98.60
32097;DHT22;18610;49.916;8.284;2023-03-14T15:36:20;10.30;98.40
32097;DHT22;18610;49.916;8.284;2023-03-14T15:38:49;10.30;98.70
32097;DHT22;18610;49.916;8.284;2023-03-14T15:41:16;10.20;99.00
32097;DHT22;18610;49.916;8.284;2023-03-14T15:43:43;10.10;99.20
32097;DHT22;18610;49.916;8.284;2023-03-14T15:46:10;9.90;98.60
32097;DHT22;18610;49.916;8.284;2023-03-14T15:48:37;9.90;99.90